createdAt,value
2022-11-06T00:00:45.117Z,14.20
2022-11-06T00:03:13.828Z,14.20
2022-11-06T00:06:00.969Z,14.20
2022-11-06T00:08:31.951Z,14.30
2022-11-06T00:11:00.590Z,14.30
2022-11-06T00:13:29.585Z,14.30
2022-11-06T00:16:04.564Z,14.20
2022-11-06T00:18:33.533Z,14.20
2022-11-06T00:21:08.502Z,14.20
2022-11-06T00:23:37.465Z,14.20
2022-11-06T00:26:08.315Z,14.20
2022-11-06T00:28:37.123Z,14.30
2022-11-06T00:31:08.623Z,14.20
2022-11-06T00:33:38.210Z,14.20
2022-11-06T00:36:08.476Z,14.30
2022-11-06T00:38:37.319Z,14.40
2022-11-06T00:41:06.799Z,14.40
2022-11-06T00:43:36.591Z,14.40
2022-11-06T00:46:09.140Z,14.40
2022-11-06T00:48:38.421Z,14.40
2022-11-06T00:51:08.893Z,14.40
2022-11-06T00:53:38.027Z,14.50
2022-11-06T00:56:07.650Z,14.50
2022-11-06T00:58:36.665Z,14.50
2022-11-06T01:01:11.311Z,14.40
2022-11-06T01:03:40.726Z,14.50
2022-11-06T01:06:10.657Z,14.50
2022-11-06T01:08:39.920Z,14.50
2022-11-06T01:11:10.955Z,14.40
2022-11-06T01:13:39.905Z,14.40
2022-11-06T01:16:12.735Z,14.30
2022-11-06T01:18:42.708Z,14.30
2022-11-06T01:21:12.929Z,14.30
2022-11-06T01:23:42.181Z,14.40
2022-11-06T01:26:12.273Z,14.40
2022-11-06T01:28:41.608Z,14.50
2022-11-06T01:31:13.337Z,14.40
2022-11-06T01:33:42.972Z,14.30
2022-11-06T01:36:12.265Z,14.40
2022-11-06T01:38:42.696Z,14.30
2022-11-06T01:41:14.315Z,14.30
2022-11-06T01:43:48.565Z,14.30
2022-11-06T01:46:20.393Z,14.30
2022-11-06T01:48:53.015Z,14.20
2022-11-06T01:51:23.299Z,14.20
2022-11-06T01:53:52.402Z,14.20
2022-11-06T01:56:22.319Z,14.10
2022-11-06T01:58:53.379Z,14.10
2022-11-06T02:01:24.544Z,14.10
2022-11-06T02:04:00.350Z,14.00
2022-11-06T02:06:30.288Z,14.10
2022-11-06T02:08:58.889Z,14.10
2022-11-06T02:11:27.678Z,14.00
2022-11-06T02:14:04.981Z,14.10
2022-11-06T02:16:45.294Z,14.10
2022-11-06T02:19:40.123Z,14.10
2022-11-06T02:22:33.620Z,14.10
2022-11-06T02:25:15.291Z,14.10
2022-11-06T02:27:47.783Z,14.10
2022-11-06T02:30:18.994Z,14.00
2022-11-06T02:32:55.658Z,14.00
2022-11-06T02:35:30.191Z,14.10
2022-11-06T02:38:05.193Z,14.10
2022-11-06T02:40:36.442Z,14.00
2022-11-06T02:43:09.443Z,13.90
2022-11-06T02:45:42.661Z,13.90
2022-11-06T02:48:13.984Z,13.80
2022-11-06T02:50:49.650Z,13.80
2022-11-06T02:53:21.593Z,13.80
2022-11-06T02:55:52.693Z,13.80
2022-11-06T02:58:25.925Z,13.90
2022-11-06T03:01:00.420Z,13.80
2022-11-06T03:03:32.240Z,13.80
2022-11-06T03:06:05.756Z,13.80
2022-11-06T03:08:39.972Z,13.80
2022-11-06T03:11:18.199Z,13.80
2022-11-06T03:13:55.578Z,13.90
2022-11-06T03:16:32.300Z,13.80
2022-11-06T03:19:07.110Z,13.70
2022-11-06T03:21:55.717Z,13.80
2022-11-06T03:24:32.654Z,13.80
2022-11-06T03:27:08.746Z,13.80
2022-11-06T03:29:43.128Z,13.90
2022-11-06T03:32:18.295Z,13.80
2022-11-06T03:34:52.796Z,13.80
2022-11-06T03:37:24.904Z,13.80
2022-11-06T03:39:57.343Z,13.90
2022-11-06T03:42:30.688Z,13.90
2022-11-06T03:45:04.710Z,13.90
2022-11-06T03:47:38.467Z,13.80
2022-11-06T03:50:13.782Z,13.80
2022-11-06T03:52:46.825Z,13.70
2022-11-06T03:55:21.173Z,13.70
2022-11-06T03:57:54.132Z,13.70
2022-11-06T04:00:24.405Z,13.80
2022-11-06T04:03:05.066Z,13.80
2022-11-06T04:05:38.486Z,13.70
2022-11-06T04:08:27.088Z,13.80
2022-11-06T04:11:17.888Z,13.90
2022-11-06T04:14:04.276Z,13.90
2022-11-06T04:16:36.604Z,14.00
2022-11-06T04:19:08.153Z,14.00
2022-11-06T04:21:50.913Z,14.00
2022-11-06T04:24:46.633Z,13.90
2022-11-06T04:27:31.338Z,14.00
2022-11-06T04:30:07.703Z,14.00
2022-11-06T04:33:00.098Z,14.00
2022-11-06T04:35:35.671Z,14.10
2022-11-06T04:38:08.586Z,14.10
2022-11-06T04:40:48.608Z,14.10
2022-11-06T04:43:23.546Z,14.10
2022-11-06T04:45:57.033Z,14.10
2022-11-06T04:48:29.503Z,14.10
2022-11-06T04:51:02.551Z,14.10
2022-11-06T04:53:33.554Z,14.10
2022-11-06T04:56:08.072Z,14.20
2022-11-06T04:58:38.579Z,14.20
2022-11-06T05:01:07.425Z,14.20
2022-11-06T05:03:38.510Z,14.20
2022-11-06T05:06:07.565Z,14.30
2022-11-06T05:08:36.290Z,14.30
2022-11-06T05:11:04.848Z,14.30
2022-11-06T05:13:33.620Z,14.30
2022-11-06T05:16:02.668Z,14.30
2022-11-06T05:18:31.350Z,14.40
2022-11-06T05:21:16.994Z,14.30
2022-11-06T05:23:45.619Z,14.40
2022-11-06T05:26:14.337Z,14.40
2022-11-06T05:28:42.866Z,14.40
2022-11-06T05:31:11.436Z,14.50
2022-11-06T05:33:40.235Z,14.50
2022-11-06T05:36:10.767Z,14.60
2022-11-06T05:38:39.525Z,14.60
2022-11-06T05:41:08.011Z,14.50
2022-11-06T05:43:36.513Z,14.50
2022-11-06T05:46:05.225Z,14.40
2022-11-06T05:48:33.861Z,14.50
2022-11-06T05:51:03.324Z,14.60
2022-11-06T05:53:34.511Z,14.60
2022-11-06T05:56:03.419Z,14.50
2022-11-06T05:58:32.177Z,14.50
2022-11-06T06:01:00.814Z,14.50
2022-11-06T06:03:29.456Z,14.50
2022-11-06T06:05:59.337Z,14.60
2022-11-06T06:08:28.377Z,14.50
2022-11-06T06:11:07.708Z,14.60
2022-11-06T06:13:38.414Z,14.60
2022-11-06T06:16:07.404Z,14.60
2022-11-06T06:18:36.227Z,14.60
2022-11-06T06:21:07.434Z,14.50
2022-11-06T06:23:35.997Z,14.60
2022-11-06T06:26:06.442Z,14.50
2022-11-06T06:28:35.389Z,14.60
2022-11-06T06:31:06.339Z,14.60
2022-11-06T06:33:35.189Z,14.70
2022-11-06T06:36:05.804Z,14.80
2022-11-06T06:38:34.739Z,14.80
2022-11-06T06:41:03.834Z,14.80
2022-11-06T06:43:34.126Z,14.90
2022-11-06T06:46:05.059Z,15.00
2022-11-06T06:48:33.757Z,15.20
2022-11-06T06:51:04.986Z,15.20
2022-11-06T06:53:33.704Z,15.30
2022-11-06T06:56:02.920Z,15.50
2022-11-06T06:58:33.798Z,15.60
2022-11-06T07:01:03.322Z,15.80
2022-11-06T07:03:32.539Z,15.90
2022-11-06T07:06:01.297Z,16.00
2022-11-06T07:08:32.158Z,16.10
2022-11-06T07:11:01.842Z,16.20
2022-11-06T07:13:35.452Z,16.20
2022-11-06T07:16:08.041Z,16.20
2022-11-06T07:18:37.527Z,16.20
2022-11-06T07:21:06.981Z,16.20
2022-11-06T07:23:36.281Z,16.10
2022-11-06T07:26:05.757Z,16.10
2022-11-06T07:28:34.762Z,16.20
2022-11-06T07:31:06.259Z,16.10
2022-11-06T07:33:36.476Z,16.20
2022-11-06T07:36:06.834Z,16.20
2022-11-06T07:38:50.273Z,16.40
2022-11-06T07:41:19.537Z,16.40
2022-11-06T07:43:50.938Z,16.50
2022-11-06T07:46:20.956Z,16.60
2022-11-06T07:48:52.050Z,16.80
2022-11-06T07:51:21.267Z,16.90
2022-11-06T07:53:49.750Z,16.80
2022-11-06T07:56:18.761Z,16.80
2022-11-06T07:58:48.298Z,16.80
2022-11-06T08:01:19.105Z,16.80
2022-11-06T08:03:50.306Z,16.90
2022-11-06T08:06:18.818Z,16.90
2022-11-06T08:08:47.422Z,17.00
2022-11-06T08:11:16.355Z,17.00
2022-11-06T08:13:44.918Z,17.20
2022-11-06T08:16:15.639Z,17.10
2022-11-06T08:18:44.908Z,17.30
2022-11-06T08:21:14.797Z,17.30
2022-11-06T08:23:43.334Z,17.10
2022-11-06T08:26:12.847Z,17.30
2022-11-06T08:28:41.718Z,17.50
2022-11-06T08:31:10.750Z,17.70
2022-11-06T08:33:39.913Z,17.80
2022-11-06T08:36:10.272Z,17.80
2022-11-06T08:38:40.549Z,17.80
2022-11-06T08:41:10.755Z,17.90
2022-11-06T08:43:39.953Z,18.00
2022-11-06T08:46:09.903Z,18.10
2022-11-06T08:48:38.834Z,18.10
2022-11-06T08:51:07.830Z,18.00
2022-11-06T08:53:36.666Z,18.00
2022-11-06T08:56:07.536Z,18.00
2022-11-06T08:58:37.317Z,17.90
2022-11-06T09:01:05.884Z,17.90
2022-11-06T09:03:34.566Z,18.10
2022-11-06T09:06:03.215Z,18.30
2022-11-06T09:08:32.615Z,18.20
2022-11-06T09:11:01.105Z,18.30
2022-11-06T09:13:30.992Z,18.40
2022-11-06T09:16:00.799Z,18.30
2022-11-06T09:18:29.408Z,18.30
2022-11-06T09:20:58.226Z,18.40
2022-11-06T09:23:27.068Z,18.40
2022-11-06T09:25:55.567Z,18.50
2022-11-06T09:28:24.125Z,18.60
2022-11-06T09:30:55.443Z,18.40
2022-11-06T09:33:24.001Z,18.50
2022-11-06T09:35:52.866Z,18.50
2022-11-06T09:38:21.453Z,18.50
2022-11-06T09:40:53.574Z,18.40
2022-11-06T09:43:58.650Z,18.50
2022-11-06T09:46:27.823Z,18.60
2022-11-06T09:49:02.365Z,18.40
2022-11-06T09:51:39.549Z,18.40
2022-11-06T09:54:15.633Z,18.50
2022-11-06T09:56:47.379Z,18.50
2022-11-06T09:59:20.210Z,18.60
2022-11-06T10:01:55.646Z,18.60
2022-11-06T10:04:35.400Z,18.60
2022-11-06T10:07:04.027Z,18.60
2022-11-06T10:09:32.608Z,18.70
2022-11-06T10:12:09.863Z,18.70
2022-11-06T10:14:54.861Z,18.80
2022-11-06T10:17:36.740Z,18.90
2022-11-06T10:20:13.347Z,19.00
2022-11-06T10:22:46.599Z,19.10
2022-11-06T10:25:22.196Z,19.10
2022-11-06T10:28:02.244Z,19.20
2022-11-06T10:30:40.184Z,19.30
2022-11-06T10:33:25.082Z,19.30
2022-11-06T10:36:01.432Z,19.40
2022-11-06T10:38:35.022Z,19.50
2022-11-06T10:41:03.898Z,19.50
2022-11-06T10:43:36.236Z,19.60
2022-11-06T10:46:16.229Z,19.60
2022-11-06T10:48:51.166Z,19.50
2022-11-06T10:51:47.446Z,19.80
2022-11-06T10:54:29.656Z,20.00
2022-11-06T10:57:11.418Z,19.90
2022-11-06T10:59:40.058Z,20.10
2022-11-06T11:02:24.955Z,20.40
2022-11-06T11:04:57.961Z,20.40
2022-11-06T11:07:30.748Z,20.40
2022-11-06T11:09:59.514Z,20.60
2022-11-06T11:12:30.419Z,20.60
2022-11-06T11:15:17.528Z,20.50
2022-11-06T11:18:10.377Z,20.50
2022-11-06T11:20:42.700Z,20.40
2022-11-06T11:23:40.441Z,20.50
2022-11-06T11:26:24.303Z,20.60
2022-11-06T11:28:56.300Z,20.60
2022-11-06T11:31:32.534Z,20.70
2022-11-06T11:34:06.356Z,20.90
2022-11-06T11:36:52.669Z,20.90
2022-11-06T11:39:25.809Z,20.90
2022-11-06T11:41:57.174Z,20.90
2022-11-06T11:44:25.748Z,20.90
2022-11-06T11:46:55.888Z,21.20
2022-11-06T11:49:29.663Z,21.20
2022-11-06T11:52:02.172Z,21.10
2022-11-06T11:54:36.076Z,21.10
2022-11-06T11:57:08.390Z,21.20
2022-11-06T11:59:43.654Z,21.20
2022-11-06T12:02:25.239Z,21.40
2022-11-06T12:04:58.452Z,21.90
2022-11-06T12:07:34.670Z,22.40
2022-11-06T12:10:22.801Z,22.50
2022-11-06T12:12:52.466Z,23.00
2022-11-06T12:15:23.295Z,23.90
2022-11-06T12:17:57.572Z,24.80
2022-11-06T12:20:46.734Z,25.50
2022-11-06T12:23:26.059Z,25.50
2022-11-06T12:26:06.674Z,25.60
2022-11-06T12:28:38.791Z,25.70
2022-11-06T12:31:15.670Z,26.40
2022-11-06T12:34:06.132Z,27.30
2022-11-06T12:36:40.428Z,28.10
2022-11-06T12:39:17.663Z,29.00
2022-11-06T12:41:50.198Z,29.10
2022-11-06T12:44:19.125Z,28.50
2022-11-06T12:46:52.475Z,28.90
2022-11-06T12:52:30.937Z,28.90
2022-11-06T12:55:17.489Z,29.90
2022-11-06T12:58:03.986Z,30.70
2022-11-06T13:00:52.627Z,29.60
2022-11-06T13:03:37.683Z,29.40
2022-11-06T13:06:16.822Z,27.70
2022-11-06T13:08:55.605Z,26.40
2022-11-06T13:11:37.500Z,25.40
2022-11-06T13:14:20.190Z,24.40
2022-11-06T13:17:01.101Z,23.70
2022-11-06T13:19:37.314Z,23.40
2022-11-06T13:22:18.373Z,22.60
2022-11-06T13:24:55.177Z,22.00
2022-11-06T13:27:35.399Z,21.80
2022-11-06T13:30:06.730Z,21.60
2022-11-06T13:32:37.371Z,21.50
2022-11-06T13:35:16.657Z,21.40
2022-11-06T13:37:48.767Z,21.40
2022-11-06T13:40:23.946Z,21.30
2022-11-06T13:43:00.501Z,21.10
2022-11-06T13:45:35.096Z,21.00
2022-11-06T13:48:19.145Z,21.00
2022-11-06T13:50:54.832Z,21.00
2022-11-06T13:53:33.068Z,20.80
2022-11-06T13:56:13.804Z,20.80
2022-11-06T13:59:23.818Z,20.90
2022-11-06T14:02:01.730Z,21.00
2022-11-06T14:04:53.592Z,21.10
2022-11-06T14:07:28.290Z,21.00
2022-11-06T14:09:57.378Z,20.90
2022-11-06T14:12:25.941Z,20.80
2022-11-06T14:15:18.349Z,20.60
2022-11-06T14:17:56.364Z,20.50
2022-11-06T14:20:32.721Z,20.60
2022-11-06T14:23:38.644Z,20.50
2022-11-06T14:26:12.974Z,20.40
2022-11-06T14:28:43.726Z,20.30
2022-11-06T14:32:02.017Z,20.20
2022-11-06T14:34:32.758Z,20.20
2022-11-06T14:37:22.593Z,20.20
2022-11-06T14:40:13.284Z,20.20
2022-11-06T14:42:45.122Z,20.10
2022-11-06T14:45:18.946Z,20.00
2022-11-06T14:47:56.574Z,20.00
2022-11-06T14:50:27.849Z,20.10
2022-11-06T14:53:00.462Z,20.10
2022-11-06T14:55:33.539Z,20.10
2022-11-06T14:58:15.643Z,20.10
2022-11-06T15:00:54.106Z,20.00
2022-11-06T15:03:29.381Z,19.90
2022-11-06T15:06:03.331Z,19.80
2022-11-06T15:08:54.198Z,19.80
2022-11-06T15:11:53.495Z,19.60
2022-11-06T15:15:02.921Z,19.50
2022-11-06T15:17:36.771Z,19.50
2022-11-06T15:20:22.190Z,19.50
2022-11-06T15:23:00.376Z,19.30
2022-11-06T15:25:30.186Z,19.20
2022-11-06T15:28:07.764Z,19.10
2022-11-06T15:30:43.665Z,19.00
2022-11-06T15:33:17.463Z,18.90
2022-11-06T15:35:51.325Z,18.80
2022-11-06T15:38:27.173Z,18.80
2022-11-06T15:41:18.314Z,18.80
2022-11-06T15:43:51.392Z,18.80
2022-11-06T15:46:24.592Z,18.80
2022-11-06T15:49:19.506Z,18.60
2022-11-06T15:51:57.619Z,18.70
2022-11-06T15:54:36.143Z,18.70
2022-11-06T15:57:07.530Z,18.70
2022-11-06T15:59:38.017Z,18.60
2022-11-06T16:02:15.464Z,18.50
2022-11-06T16:04:47.061Z,18.50
2022-11-06T16:07:18.213Z,18.50
2022-11-06T16:09:47.599Z,18.40
2022-11-06T16:12:20.589Z,18.40
2022-11-06T16:14:50.651Z,18.40
2022-11-06T16:17:24.235Z,18.50
2022-11-06T16:19:56.071Z,18.60
2022-11-06T16:22:31.162Z,18.70
2022-11-06T16:25:03.374Z,18.80
2022-11-06T16:27:35.635Z,18.70
2022-11-06T16:30:07.350Z,18.60
2022-11-06T16:32:42.212Z,18.60
2022-11-06T16:35:32.741Z,18.70
2022-11-06T16:38:45.787Z,18.50
2022-11-06T16:41:37.710Z,18.50
2022-11-06T16:44:30.706Z,18.40
2022-11-06T16:47:19.606Z,18.40
2022-11-06T16:49:53.831Z,18.30
2022-11-06T16:52:32.291Z,18.30
2022-11-06T16:55:11.406Z,18.40
2022-11-06T16:57:47.421Z,18.30
2022-11-06T17:00:30.429Z,18.30
2022-11-06T17:03:02.842Z,18.20
2022-11-06T17:05:33.887Z,18.10
2022-11-06T17:08:10.945Z,18.10
2022-11-06T17:10:41.862Z,18.00
2022-11-06T17:13:21.162Z,17.90
2022-11-06T17:15:54.764Z,17.80
2022-11-06T17:18:27.879Z,17.70
2022-11-06T17:20:59.058Z,17.70
2022-11-06T17:23:28.745Z,17.60
2022-11-06T17:26:00.671Z,17.50
2022-11-06T17:28:32.542Z,17.50
2022-11-06T17:31:01.082Z,17.50
2022-11-06T17:33:31.094Z,17.50
2022-11-06T17:35:59.700Z,17.40
2022-11-06T17:38:28.235Z,17.30
2022-11-06T17:40:56.849Z,17.20
2022-11-06T17:43:25.362Z,17.40
2022-11-06T17:45:53.965Z,17.40
2022-11-06T17:48:22.574Z,17.30
2022-11-06T17:51:10.341Z,17.30
2022-11-06T17:53:38.885Z,17.30
2022-11-06T17:56:08.389Z,17.10
2022-11-06T17:58:36.935Z,17.10
2022-11-06T18:01:10.456Z,17.10
2022-11-06T18:03:43.643Z,16.90
2022-11-06T18:06:15.125Z,16.90
2022-11-06T18:08:46.281Z,16.90
2022-11-06T18:11:15.071Z,16.80
2022-11-06T18:13:45.423Z,16.70
2022-11-06T18:16:30.373Z,16.70
2022-11-06T18:18:59.251Z,16.60
2022-11-06T18:21:29.238Z,16.50
2022-11-06T18:23:57.811Z,16.50
2022-11-06T18:26:29.640Z,16.50
2022-11-06T18:28:59.183Z,16.60
2022-11-06T18:31:27.879Z,16.70
2022-11-06T18:33:56.464Z,16.70
2022-11-06T18:36:25.069Z,16.60
2022-11-06T18:38:55.137Z,16.60
2022-11-06T18:41:24.246Z,16.60
2022-11-06T18:43:57.237Z,16.60
2022-11-06T18:46:27.402Z,16.50
2022-11-06T18:48:56.727Z,16.40
2022-11-06T18:51:35.169Z,16.30
2022-11-06T18:54:07.740Z,16.30
2022-11-06T18:56:39.144Z,16.20
2022-11-06T18:59:08.859Z,16.10
2022-11-06T19:01:37.872Z,16.20
2022-11-06T19:04:08.535Z,16.40
2022-11-06T19:06:38.054Z,16.30
2022-11-06T19:09:09.199Z,16.40
2022-11-06T19:11:39.105Z,16.40
2022-11-06T19:14:07.716Z,16.30
2022-11-06T19:16:37.929Z,16.20
2022-11-06T19:19:08.413Z,16.00
2022-11-06T19:21:36.996Z,15.90
2022-11-06T19:24:07.318Z,15.70
2022-11-06T19:26:36.689Z,15.50
2022-11-06T19:29:07.685Z,15.50
2022-11-06T19:31:37.474Z,15.60
2022-11-06T19:34:08.049Z,15.70
2022-11-06T19:36:36.982Z,15.70
2022-11-06T19:39:07.563Z,15.70
2022-11-06T19:41:36.177Z,15.70
2022-11-06T19:44:04.797Z,15.80
2022-11-06T19:46:35.952Z,15.60
2022-11-06T19:49:05.695Z,15.60
2022-11-06T19:51:35.021Z,15.60
2022-11-06T19:54:05.869Z,15.60
2022-11-06T19:56:35.973Z,15.70
2022-11-06T19:59:04.913Z,15.70
2022-11-06T20:01:34.882Z,15.60
2022-11-06T20:04:03.520Z,15.50
2022-11-06T20:06:32.292Z,15.60
2022-11-06T20:09:00.844Z,15.70
2022-11-06T20:11:29.388Z,15.70
2022-11-06T20:13:59.421Z,15.60
2022-11-06T20:16:28.693Z,15.60
2022-11-06T20:18:59.667Z,15.50
2022-11-06T20:21:30.260Z,15.40
2022-11-06T20:23:59.314Z,15.50
2022-11-06T20:26:30.542Z,15.50
2022-11-06T20:29:03.624Z,15.50
2022-11-06T20:31:33.623Z,15.40
2022-11-06T20:34:04.695Z,15.20
2022-11-06T20:36:35.367Z,15.10
2022-11-06T20:39:09.335Z,15.00
2022-11-06T20:41:38.375Z,15.10
2022-11-06T20:44:09.373Z,15.10
2022-11-06T20:46:37.999Z,15.20
2022-11-06T20:49:06.610Z,15.20
2022-11-06T20:51:59.967Z,15.30
2022-11-06T20:54:26.093Z,15.30
2022-11-06T20:56:54.605Z,15.40
2022-11-06T20:59:24.596Z,15.30
2022-11-06T21:01:54.155Z,15.30
2022-11-06T21:04:24.206Z,15.20
2022-11-06T21:06:55.545Z,15.20
2022-11-06T21:09:24.929Z,15.10
2022-11-06T21:11:53.390Z,15.20
2022-11-06T21:14:23.321Z,15.20
2022-11-06T21:16:52.705Z,15.20
2022-11-06T21:19:21.307Z,15.20
2022-11-06T21:21:50.191Z,15.10
2022-11-06T21:24:18.932Z,14.90
2022-11-06T21:26:48.729Z,14.80
2022-11-06T21:29:17.288Z,14.80
2022-11-06T21:31:49.093Z,14.80
2022-11-06T21:34:18.917Z,14.80
2022-11-06T21:36:48.390Z,14.80
2022-11-06T21:39:19.952Z,14.80
2022-11-06T21:41:48.682Z,14.50
2022-11-06T21:44:19.104Z,14.60
2022-11-06T21:46:51.625Z,14.50
2022-11-06T21:49:20.162Z,14.40
2022-11-06T21:51:48.667Z,14.60
2022-11-06T21:54:34.776Z,14.60
2022-11-06T21:57:03.466Z,14.60
2022-11-06T21:59:33.488Z,14.80
2022-11-06T22:02:07.268Z,14.80
2022-11-06T22:04:35.800Z,14.90
2022-11-06T22:07:04.338Z,14.90
2022-11-06T22:09:35.234Z,15.00
2022-11-06T22:12:04.227Z,15.10
2022-11-06T22:14:32.832Z,15.00
2022-11-06T22:17:01.402Z,14.90
2022-11-06T22:19:33.891Z,14.80
2022-11-06T22:22:03.041Z,14.70
2022-11-06T22:24:31.553Z,14.70
2022-11-06T22:27:00.092Z,14.60
2022-11-06T22:29:28.625Z,14.50
2022-11-06T22:31:57.360Z,14.50
2022-11-06T22:34:25.831Z,14.50
2022-11-06T22:36:55.738Z,14.50
2022-11-06T22:39:24.287Z,14.40
2022-11-06T22:41:53.424Z,14.50
2022-11-06T22:44:21.999Z,14.40
2022-11-06T22:46:50.913Z,14.40
2022-11-06T22:49:19.539Z,14.50
2022-11-06T22:51:48.095Z,14.60
2022-11-06T22:54:18.044Z,14.50
2022-11-06T22:56:46.601Z,14.40
2022-11-06T22:59:15.073Z,14.50
2022-11-06T23:01:44.091Z,14.50
2022-11-06T23:04:15.969Z,14.60
2022-11-06T23:06:45.802Z,14.70
2022-11-06T23:09:14.725Z,14.70
2022-11-06T23:11:46.957Z,14.50
2022-11-06T23:14:15.511Z,14.50
2022-11-06T23:17:01.028Z,14.50
2022-11-06T23:19:32.259Z,14.50
2022-11-06T23:22:18.528Z,14.30
2022-11-06T23:24:47.175Z,14.50
2022-11-06T23:27:17.115Z,14.50
2022-11-06T23:29:45.760Z,14.40
2022-11-06T23:32:14.248Z,14.30
2022-11-06T23:34:42.790Z,14.30
2022-11-06T23:37:12.992Z,14.20
2022-11-06T23:39:41.526Z,14.20
2022-11-06T23:42:10.013Z,14.10
2022-11-06T23:44:57.790Z,14.10
2022-11-06T23:47:26.582Z,14.10
2022-11-06T23:49:55.299Z,14.10
2022-11-06T23:52:23.862Z,14.10
2022-11-06T23:54:52.692Z,14.20
2022-11-06T23:57:21.933Z,14.20
2022-11-06T23:59:51.813Z,14.30
